Ruggles Beach, Ohio
Current Conditions -  °F | °C
As of 10:33 PM on Friday 28 Nov 2014 (Local Time) from KPCW Reporting Station
Overcast Overcast  
Wind Chill: 21°   Ceiling: 7000
Heat Index: 30°   Visibility: 10mi
Dew Point: 23°   Wind: 10mph
Humidity: 75%   Direction: 180°S
Pressure: 30.1"   Gusts: NA
Location:  41.3748°N, 82.5554°W
Report Text: KPCW 290333Z AUTO 18009KT 10SM OVC070 M01/M05 A3010 RMK AO2 $
Loading
Personal Weather Stations






























Interactive Weather Map New forecast layout! Learn more

10-Day Weather Forecast

Advertisements
Track Severe Weather on mobile